Time;durP1;ratioP1;P1;durP2;ratioP2;P2;SDS_P1;SDS_P2;PMS_P1;PMS_P2;Temp;Humidity;BMP_temperature;BMP_pressure;BME280_temperature;BME280_humidity;BME280_pressure;Samples;Min_cycle;Max_cycle;Signal;HPM_P1;HPM_P2
2022/10/19 00:00:43;;;;;;;10.55;4.65;;;;;;;11.90;70.30;103042.38;4896497;29;20043;-74
2022/10/19 00:03:08;;;;;;;10.60;4.60;;;;;;;11.86;70.08;103045.69;4885925;29;20086;-74
2022/10/19 00:05:33;;;;;;;7.03;4.03;;;;;;;11.88;69.87;103052.78;4906855;29;20076;-73
2022/10/19 00:08:00;;;;;;;9.55;4.72;;;;;;;11.86;69.96;103048.31;4890414;29;20051;-73
2022/10/19 00:10:26;;;;;;;10.98;5.18;;;;;;;11.77;70.05;103048.81;4891753;29;20687;-72
2022/10/19 00:12:51;;;;;;;9.52;4.75;;;;;;;11.77;70.02;103054.06;4890218;29;20774;-72
2022/10/19 00:15:16;;;;;;;10.38;4.82;;;;;;;11.79;69.65;103052.38;4884093;29;20070;-73
2022/10/19 00:17:42;;;;;;;10.75;5.03;;;;;;;11.75;69.82;103045.25;4890372;29;20043;-73
2022/10/19 00:20:08;;;;;;;13.57;5.88;;;;;;;11.75;69.82;103047.84;4891993;29;20044;-73
2022/10/19 00:22:33;;;;;;;11.80;5.20;;;;;;;11.66;69.94;103043.06;4893235;29;20028;-73
2022/10/19 00:24:59;;;;;;;10.60;4.80;;;;;;;11.61;70.01;103039.38;4883267;29;20032;-72
2022/10/19 00:27:24;;;;;;;11.35;4.90;;;;;;;11.64;69.72;103051.69;4891132;29;20099;-73
2022/10/19 00:29:49;;;;;;;11.05;5.15;;;;;;;11.60;70.23;103049.75;4892486;29;20381;-71
2022/10/19 00:32:15;;;;;;;15.40;5.82;;;;;;;11.54;70.24;103045.16;4882914;29;20678;-73
2022/10/19 00:34:40;;;;;;;11.70;5.30;;;;;;;11.53;70.09;103045.06;4888498;29;20257;-73
2022/10/19 00:37:05;;;;;;;9.40;5.22;;;;;;;11.62;70.50;103045.50;4887756;28;20028;-73
2022/10/19 00:39:31;;;;;;;10.10;5.40;;;;;;;11.63;70.85;103049.91;4888773;29;20017;-73
2022/10/19 00:41:56;;;;;;;10.10;5.32;;;;;;;11.58;70.38;103047.09;4892697;29;20028;-73
2022/10/19 00:44:42;;;;;;;11.00;5.32;;;;;;;11.54;70.08;103050.38;4887693;29;20040;-73
2022/10/19 00:47:07;;;;;;;12.85;5.43;;;;;;;11.50;70.28;103050.19;4875877;29;20052;-73
2022/10/19 00:49:37;;;;;;;11.05;5.68;;;;;;;11.36;70.21;103044.34;4887349;29;20111;-73
2022/10/19 00:52:09;;;;;;;9.60;5.05;;;;;;;11.39;70.07;103045.41;4895781;29;20427;-72
2022/10/19 00:54:37;;;;;;;11.68;5.97;;;;;;;11.40;70.81;103041.06;4891344;29;20036;-72
2022/10/19 00:57:04;;;;;;;12.05;5.15;;;;;;;11.35;70.65;103046.06;4883315;29;20051;-74
2022/10/19 00:59:31;;;;;;;11.07;5.40;;;;;;;11.28;70.17;103049.22;4890786;29;20416;-73
2022/10/19 01:01:57;;;;;;;13.00;5.75;;;;;;;11.21;70.21;103043.66;4885402;29;20456;-74
2022/10/19 01:04:25;;;;;;;13.00;5.60;;;;;;;11.20;70.02;103039.28;4877425;29;20043;-73
2022/10/19 01:06:52;;;;;;;9.20;4.97;;;;;;;11.15;69.90;103040.78;4890307;29;20480;-73
2022/10/19 01:09:18;;;;;;;9.80;5.40;;;;;;;11.12;70.31;103040.63;4887966;29;20127;-73
2022/10/19 01:12:07;;;;;;;9.93;5.03;;;;;;;11.13;70.10;103047.66;4892465;29;20614;-71
2022/10/19 01:14:39;;;;;;;16.73;5.70;;;;;;;11.15;70.02;103040.78;4897647;29;20107;-73
2022/10/19 01:17:26;;;;;;;9.85;5.50;;;;;;;11.09;70.48;103041.41;4889963;29;20056;-73
2022/10/19 01:19:51;;;;;;;11.88;5.80;;;;;;;11.05;70.04;103044.66;4888795;29;20764;-73
2022/10/19 01:22:44;;;;;;;11.60;5.75;;;;;;;11.06;69.97;103030.81;4894751;29;20047;-74
2022/10/19 01:25:21;;;;;;;10.23;5.50;;;;;;;11.07;69.70;103036.91;4888463;29;20088;-74
2022/10/19 01:27:59;;;;;;;12.38;6.00;;;;;;;11.01;70.03;103034.03;4891227;29;20051;-72
2022/10/19 01:30:35;;;;;;;10.52;6.20;;;;;;;10.95;69.97;103032.03;4892814;29;20071;-73
2022/10/19 01:33:28;;;;;;;13.88;6.15;;;;;;;10.93;69.77;103031.97;4886806;29;20042;-73
2022/10/19 01:36:01;;;;;;;14.55;6.70;;;;;;;10.91;70.08;103022.28;4891438;29;20059;-74
2022/10/19 01:38:36;;;;;;;13.48;6.70;;;;;;;10.87;70.43;103018.63;4888880;29;20421;-73
2022/10/19 01:41:04;;;;;;;12.52;6.82;;;;;;;10.88;70.49;103019.53;4891848;29;20052;-72
2022/10/19 01:43:41;;;;;;;14.57;6.60;;;;;;;10.94;70.42;103017.19;4889206;29;20467;-72
2022/10/19 01:46:17;;;;;;;11.57;6.50;;;;;;;10.94;70.40;103012.88;4893208;29;20063;-73
2022/10/19 01:48:51;;;;;;;14.00;6.50;;;;;;;10.94;70.31;103014.59;4892607;29;20033;-73
2022/10/19 01:51:25;;;;;;;12.25;6.40;;;;;;;10.93;70.02;103015.41;4886878;29;20040;-74
2022/10/19 01:53:56;;;;;;;10.48;5.95;;;;;;;10.91;70.08;103019.69;4893623;29;20669;-72
2022/10/19 01:56:26;;;;;;;11.00;6.57;;;;;;;10.90;70.30;103021.41;4893493;29;20128;-73
2022/10/19 01:58:55;;;;;;;14.07;6.10;;;;;;;10.91;69.92;103027.50;4894979;29;20419;-73
2022/10/19 02:01:25;;;;;;;12.07;6.43;;;;;;;10.87;70.04;103022.94;4892808;29;20162;-73
2022/10/19 02:03:52;;;;;;;13.68;6.57;;;;;;;10.93;69.94;103018.00;4891706;29;20063;-73
2022/10/19 02:06:19;;;;;;;13.50;6.75;;;;;;;10.96;70.42;103024.28;4893795;29;20147;-73
2022/10/19 02:08:47;;;;;;;12.32;6.38;;;;;;;10.93;70.78;103026.75;4891049;29;20055;-73
2022/10/19 02:11:13;;;;;;;12.52;5.90;;;;;;;10.93;70.03;103023.22;4891929;29;20238;-74
2022/10/19 02:13:41;;;;;;;11.95;5.82;;;;;;;10.91;69.70;103014.47;4888855;29;20451;-73
2022/10/19 02:16:13;;;;;;;13.40;6.20;;;;;;;10.95;70.27;103016.38;4888465;29;20028;-73
2022/10/19 02:18:44;;;;;;;10.60;6.22;;;;;;;10.86;70.65;103010.72;4895104;29;20475;-72
2022/10/19 02:21:09;;;;;;;13.80;6.45;;;;;;;10.79;69.88;103000.84;4885969;29;20038;-73
2022/10/19 02:23:35;;;;;;;9.45;5.57;;;;;;;10.76;70.05;102998.09;4890863;29;20596;-72
2022/10/19 02:26:01;;;;;;;12.73;6.50;;;;;;;10.67;70.63;102984.63;4891546;29;20460;-73
2022/10/19 02:28:29;;;;;;;13.85;7.03;;;;;;;10.64;70.50;102987.06;4893853;29;20506;-73
2022/10/19 02:30:55;;;;;;;11.50;6.70;;;;;;;10.61;70.71;102976.53;4889703;29;20043;-72
2022/10/19 02:33:20;;;;;;;13.20;7.20;;;;;;;10.63;70.64;102975.75;4901848;29;20306;-73
2022/10/19 02:35:47;;;;;;;13.10;7.25;;;;;;;10.68;70.60;102975.94;4893054;29;20699;-73
2022/10/19 02:38:15;;;;;;;12.82;7.10;;;;;;;10.68;70.45;102982.06;4893209;29;20210;-73
2022/10/19 02:40:47;;;;;;;10.32;6.53;;;;;;;10.68;70.49;102983.78;4896774;29;20114;-74
2022/10/19 02:43:18;;;;;;;14.48;7.20;;;;;;;10.67;70.68;102989.84;4883879;29;20160;-73
2022/10/19 02:45:51;;;;;;;14.10;7.35;;;;;;;10.68;70.74;102986.38;4893249;29;20032;-73
2022/10/19 02:48:21;;;;;;;11.25;6.55;;;;;;;10.70;70.64;102985.66;4895762;29;20035;-73
2022/10/19 02:50:47;;;;;;;12.05;6.43;;;;;;;10.70;70.55;102976.94;4890700;29;20040;-73
2022/10/19 02:53:13;;;;;;;12.15;7.10;;;;;;;10.66;70.47;102982.84;4888170;29;20035;-73
2022/10/19 02:55:39;;;;;;;11.85;7.22;;;;;;;10.69;70.47;102973.44;4885634;29;20154;-72
2022/10/19 02:58:05;;;;;;;12.27;7.40;;;;;;;10.67;70.41;102968.97;4892820;29;20060;-73
2022/10/19 03:00:30;;;;;;;14.30;8.02;;;;;;;10.65;70.61;102971.50;4891214;29;20121;-72
2022/10/19 03:02:55;;;;;;;15.45;8.07;;;;;;;10.65;70.44;102963.69;4883839;29;20131;-72
2022/10/19 03:05:21;;;;;;;17.20;8.05;;;;;;;10.67;70.49;102971.59;4893264;29;20455;-72
2022/10/19 03:07:46;;;;;;;17.38;8.43;;;;;;;10.68;70.70;102975.94;4888878;29;20183;-73
2022/10/19 03:10:11;;;;;;;14.77;8.52;;;;;;;10.69;70.44;102976.03;4891849;29;20040;-72
2022/10/19 03:12:37;;;;;;;13.05;7.78;;;;;;;10.69;70.16;102977.75;4890771;29;20064;-72
2022/10/19 03:15:03;;;;;;;14.30;8.18;;;;;;;10.67;70.71;102977.69;4887462;29;20047;-73
2022/10/19 03:17:28;;;;;;;18.38;10.25;;;;;;;10.70;71.29;102984.75;4892621;29;20115;-73
2022/10/19 03:19:54;;;;;;;21.33;9.93;;;;;;;10.73;71.16;102970.16;4889265;29;20570;-73
2022/10/19 03:22:19;;;;;;;20.00;10.85;;;;;;;10.79;71.33;102962.59;4891763;29;20035;-73
2022/10/19 03:24:44;;;;;;;19.58;10.23;;;;;;;10.85;71.25;102960.28;4890412;29;20567;-72
2022/10/19 03:27:10;;;;;;;19.17;10.68;;;;;;;10.87;70.94;102963.81;4887168;29;20040;-73
2022/10/19 03:29:35;;;;;;;16.90;9.23;;;;;;;10.86;70.54;102959.44;4894181;29;20046;-73
2022/10/19 03:32:00;;;;;;;18.33;9.43;;;;;;;10.82;70.71;102960.13;4890112;28;20044;-72
2022/10/19 03:34:26;;;;;;;16.05;9.25;;;;;;;10.76;70.47;102959.84;4892051;29;20028;-73
2022/10/19 03:36:51;;;;;;;17.85;9.23;;;;;;;10.75;70.27;102959.75;4892895;29;20043;-73
2022/10/19 03:39:17;;;;;;;18.95;9.05;;;;;;;10.72;70.49;102959.63;4881005;29;20052;-75
2022/10/19 03:41:43;;;;;;;16.27;9.23;;;;;;;10.68;70.73;102949.88;4891470;29;20032;-73
2022/10/19 03:44:10;;;;;;;16.95;8.63;;;;;;;10.68;70.43;102947.25;4885437;29;20051;-73
2022/10/19 03:46:35;;;;;;;18.17;9.48;;;;;;;10.66;70.40;102949.81;4892125;29;20391;-73
2022/10/19 03:49:02;;;;;;;20.42;10.60;;;;;;;10.68;70.48;102952.47;4885887;29;20028;-72
2022/10/19 03:51:30;;;;;;;16.30;9.60;;;;;;;10.73;71.15;102961.44;4908696;29;20028;-72
2022/10/19 03:53:58;;;;;;;15.88;9.43;;;;;;;10.70;71.03;102950.84;4888184;29;20373;-72
2022/10/19 03:56:26;;;;;;;16.45;8.57;;;;;;;10.71;71.22;102956.13;4888718;29;20482;-72
2022/10/19 03:58:53;;;;;;;15.05;8.95;;;;;;;10.71;70.68;102958.75;4891236;29;20028;-74
2022/10/19 04:01:25;;;;;;;19.80;9.02;;;;;;;10.70;70.48;102956.94;4889984;29;20146;-72
2022/10/19 04:03:59;;;;;;;17.88;9.15;;;;;;;10.69;71.13;102957.78;4889564;29;20032;-73
2022/10/19 04:06:28;;;;;;;20.48;10.13;;;;;;;10.70;71.36;102958.66;4890973;29;20095;-73
2022/10/19 04:08:54;;;;;;;17.20;8.68;;;;;;;10.69;71.01;102960.38;4886956;29;20159;-72
2022/10/19 04:11:23;;;;;;;15.13;8.48;;;;;;;10.68;70.67;102950.75;4891939;29;20036;-73
2022/10/19 04:13:50;;;;;;;16.08;8.45;;;;;;;10.63;70.86;102951.38;4887594;29;20500;-73
2022/10/19 04:16:17;;;;;;;15.13;8.63;;;;;;;10.59;71.11;102947.75;4892656;29;20142;-72
2022/10/19 04:18:43;;;;;;;15.70;9.10;;;;;;;10.60;71.10;102956.47;4891675;29;20138;-74
2022/10/19 04:21:33;;;;;;;17.42;9.45;;;;;;;10.58;70.76;102943.34;4886841;29;20038;-73
2022/10/19 04:24:07;;;;;;;17.17;8.80;;;;;;;10.54;70.84;102939.72;4886937;29;20370;-72
2022/10/19 04:26:36;;;;;;;15.35;8.57;;;;;;;10.46;70.65;102934.97;4886564;29;20036;-74
2022/10/19 04:29:02;;;;;;;14.98;8.88;;;;;;;10.39;71.59;102931.16;4890151;29;20032;-73
2022/10/19 04:31:27;;;;;;;20.00;9.65;;;;;;;10.48;71.72;102939.44;4884811;29;20091;-73
2022/10/19 04:33:53;;;;;;;13.52;8.25;;;;;;;10.54;71.48;102942.31;4890071;29;20040;-73
2022/10/19 04:36:20;;;;;;;13.23;8.30;;;;;;;10.59;71.06;102937.31;4893324;29;20043;-72
2022/10/19 04:38:45;;;;;;;16.35;8.70;;;;;;;10.53;71.64;102950.06;4889764;29;20048;-72
2022/10/19 04:41:13;;;;;;;14.30;8.07;;;;;;;10.53;71.16;102944.84;4889397;29;20123;-74
2022/10/19 04:43:39;;;;;;;17.40;8.20;;;;;;;10.55;71.21;102953.66;4883842;29;20051;-73
2022/10/19 04:46:10;;;;;;;15.35;7.97;;;;;;;10.62;71.43;102960.03;4891828;29;20036;-73
2022/10/19 04:48:37;;;;;;;14.15;7.60;;;;;;;10.61;71.73;102956.53;4891331;29;20032;-73
2022/10/19 04:51:03;;;;;;;14.40;8.00;;;;;;;10.64;71.42;102951.47;4889001;29;20055;-73
2022/10/19 04:53:29;;;;;;;13.98;7.30;;;;;;;10.60;71.00;102946.03;4890255;29;20040;-73
2022/10/19 04:55:54;;;;;;;11.73;7.13;;;;;;;10.67;71.10;102951.63;4890696;29;20059;-73
2022/10/19 04:58:20;;;;;;;12.52;7.05;;;;;;;10.72;70.94;102950.09;4895265;29;20076;-73
2022/10/19 05:00:45;;;;;;;14.15;7.00;;;;;;;10.72;71.24;102957.03;4893509;29;20144;-73
2022/10/19 05:03:11;;;;;;;10.73;6.35;;;;;;;10.71;71.88;102952.63;4887354;29;20047;-73
2022/10/19 05:05:36;;;;;;;13.85;6.57;;;;;;;10.75;71.23;102949.31;4896571;29;20028;-73
2022/10/19 05:08:02;;;;;;;13.73;6.88;;;;;;;10.75;71.19;102946.72;4906888;29;20083;-74
2022/10/19 05:10:27;;;;;;;12.07;6.68;;;;;;;10.83;72.01;102954.09;4894914;29;21610;-74
2022/10/19 05:12:53;;;;;;;10.73;6.40;;;;;;;10.87;72.20;102966.44;4895867;29;20084;-72
2022/10/19 05:15:19;;;;;;;12.45;6.63;;;;;;;10.82;72.22;102959.22;4890996;29;20062;-72
2022/10/19 05:17:44;;;;;;;12.32;6.55;;;;;;;10.92;71.94;102948.38;4897454;29;20135;-72
2022/10/19 05:20:10;;;;;;;12.15;6.55;;;;;;;10.85;72.20;102957.66;4890622;29;20048;-73
2022/10/19 05:22:36;;;;;;;11.07;6.60;;;;;;;10.89;71.60;102943.94;4893056;29;20060;-73
2022/10/19 05:25:02;;;;;;;11.90;6.70;;;;;;;10.88;71.66;102946.47;4888836;29;20520;-73
2022/10/19 05:27:27;;;;;;;9.40;6.10;;;;;;;10.88;71.32;102936.91;4894034;29;20035;-73
2022/10/19 05:29:53;;;;;;;13.23;6.55;;;;;;;10.87;71.62;102948.16;4897349;29;20365;-73
2022/10/19 05:32:18;;;;;;;10.65;6.07;;;;;;;10.85;71.28;102960.28;4888979;29;20052;-73
2022/10/19 05:34:43;;;;;;;13.32;5.95;;;;;;;10.84;71.30;102954.97;4893642;29;20525;-73
2022/10/19 05:37:09;;;;;;;11.45;6.28;;;;;;;10.83;71.43;102950.59;4889408;29;20138;-73
2022/10/19 05:39:34;;;;;;;13.57;6.38;;;;;;;10.76;71.98;102949.41;4896118;29;20164;-72
2022/10/19 05:41:59;;;;;;;11.75;6.68;;;;;;;10.79;71.73;102944.34;4895787;29;20042;-73
2022/10/19 05:44:25;;;;;;;10.15;6.25;;;;;;;10.82;71.15;102946.19;4891604;29;20172;-72
2022/10/19 05:46:50;;;;;;;12.75;6.00;;;;;;;10.79;71.27;102948.66;4895722;29;20036;-72
2022/10/19 05:49:18;;;;;;;16.60;6.50;;;;;;;10.76;71.52;102945.91;4888863;29;20040;-73
2022/10/19 05:51:44;;;;;;;10.73;6.35;;;;;;;10.75;71.53;102944.13;4893984;29;20078;-73
2022/10/19 05:54:10;;;;;;;12.63;6.35;;;;;;;10.69;71.93;102931.69;4895247;29;20028;-72
2022/10/19 05:56:35;;;;;;;11.40;6.78;;;;;;;10.68;72.10;102929.00;4887699;29;20051;-72
2022/10/19 05:59:04;;;;;;;11.82;6.10;;;;;;;10.73;71.52;102919.69;4893004;29;20032;-71
2022/10/19 06:01:30;;;;;;;11.52;6.43;;;;;;;10.68;71.97;102922.06;4888379;29;20503;-72
2022/10/19 06:03:57;;;;;;;10.68;5.90;;;;;;;10.73;70.97;102923.19;4891605;29;20331;-73
2022/10/19 06:06:23;;;;;;;10.18;6.07;;;;;;;10.68;70.97;102924.69;4892981;29;20452;-73
2022/10/19 06:08:50;;;;;;;10.85;5.70;;;;;;;10.68;71.31;102926.38;4890567;29;20044;-73
2022/10/19 06:11:18;;;;;;;10.50;6.03;;;;;;;10.65;70.74;102921.94;4894150;29;20140;-74
2022/10/19 06:13:45;;;;;;;10.27;5.90;;;;;;;10.65;70.83;102913.22;4890203;29;20170;-73
2022/10/19 06:16:13;;;;;;;11.05;5.90;;;;;;;10.62;70.90;102911.34;4891444;29;20458;-73
2022/10/19 06:18:39;;;;;;;9.77;6.18;;;;;;;10.60;71.10;102904.31;4895890;29;20036;-73
2022/10/19 06:21:07;;;;;;;14.07;6.22;;;;;;;10.61;71.18;102911.31;4885477;29;20051;-72
2022/10/19 06:23:33;;;;;;;10.98;6.07;;;;;;;10.61;70.81;102911.31;4890779;29;20585;-73
2022/10/19 06:26:03;;;;;;;11.73;6.43;;;;;;;10.62;71.10;102913.97;4887306;29;20098;-73
2022/10/19 06:28:28;;;;;;;15.50;6.95;;;;;;;10.58;71.58;102917.25;4897119;29;20032;-72
2022/10/19 06:30:56;;;;;;;13.50;6.07;;;;;;;10.62;71.53;102913.06;4895869;29;20039;-72
2022/10/19 06:33:21;;;;;;;13.07;6.88;;;;;;;10.68;71.82;102918.56;4891434;29;20100;-73
2022/10/19 06:35:47;;;;;;;13.02;6.65;;;;;;;10.72;71.61;102918.78;4895937;29;20040;-73
2022/10/19 06:38:12;;;;;;;10.30;6.15;;;;;;;10.81;71.77;102920.91;4891839;29;20653;-73
2022/10/19 06:40:38;;;;;;;11.75;6.60;;;;;;;10.84;71.64;102921.94;4895912;29;20043;-72
2022/10/19 06:43:03;;;;;;;13.75;6.88;;;;;;;10.88;71.64;102920.38;4888349;29;20130;-72
2022/10/19 06:45:29;;;;;;;11.57;6.90;;;;;;;10.92;71.96;102917.06;4893858;29;20478;-73
2022/10/19 06:47:54;;;;;;;13.77;6.78;;;;;;;10.96;72.07;102921.59;4889892;29;20083;-72
2022/10/19 06:50:19;;;;;;;15.77;7.07;;;;;;;10.97;72.04;102928.63;4886158;29;20071;-72
2022/10/19 06:52:45;;;;;;;13.65;7.00;;;;;;;11.10;72.45;102923.09;4889739;29;20729;-73
2022/10/19 06:55:11;;;;;;;12.57;6.55;;;;;;;11.19;72.41;102922.59;4879674;29;20570;-73
2022/10/19 06:57:37;;;;;;;12.18;6.53;;;;;;;11.27;72.32;102924.72;4893259;29;20100;-73
2022/10/19 07:00:06;;;;;;;11.05;6.60;;;;;;;11.22;72.07;102923.63;4891755;29;20059;-73
2022/10/19 07:02:32;;;;;;;13.05;6.40;;;;;;;11.30;71.88;102913.50;4885346;29;20391;-73
2022/10/19 07:04:57;;;;;;;12.70;6.47;;;;;;;11.44;71.98;102909.78;4888024;29;20040;-71
2022/10/19 07:07:22;;;;;;;12.02;5.97;;;;;;;11.45;71.89;102906.34;4889334;29;20067;-73
2022/10/19 07:09:48;;;;;;;9.95;5.65;;;;;;;11.59;72.06;102910.41;4892770;29;20024;-71
2022/10/19 07:12:13;;;;;;;11.82;5.72;;;;;;;11.71;72.08;102910.91;4902219;29;20567;-73
2022/10/19 07:14:39;;;;;;;12.63;5.70;;;;;;;11.74;71.42;102907.56;4887252;29;20052;-73
2022/10/19 07:17:05;;;;;;;13.32;5.40;;;;;;;11.65;71.91;102900.19;4891227;29;20028;-73
2022/10/19 07:19:31;;;;;;;11.00;5.70;;;;;;;11.81;71.48;102909.59;4888495;29;20048;-71
2022/10/19 07:21:56;;;;;;;10.93;5.63;;;;;;;11.93;71.40;102909.22;4889377;29;20369;-72
2022/10/19 07:24:22;;;;;;;14.43;5.55;;;;;;;11.93;70.94;102917.94;4887931;29;20768;-71
2022/10/19 07:26:48;;;;;;;12.25;5.43;;;;;;;11.92;70.97;102921.38;4888189;29;20079;-73
2022/10/19 07:29:13;;;;;;;10.88;5.30;;;;;;;11.91;71.08;102919.59;4901573;29;20301;-73
2022/10/19 07:31:38;;;;;;;10.38;5.30;;;;;;;11.97;71.51;102918.94;4886072;28;20040;-72
2022/10/19 07:34:04;;;;;;;11.07;5.63;;;;;;;12.09;71.12;102917.72;4883346;29;20094;-72
2022/10/19 07:36:32;;;;;;;10.48;5.30;;;;;;;12.16;71.13;102924.97;4880626;29;20207;-72
2022/10/19 07:38:59;;;;;;;9.82;5.28;;;;;;;11.99;71.57;102919.91;4885515;29;20461;-72
2022/10/19 07:41:25;;;;;;;8.93;5.07;;;;;;;12.30;70.71;102927.25;4891255;29;20126;-73
2022/10/19 07:43:51;;;;;;;11.32;5.40;;;;;;;12.36;70.73;102922.25;4884820;29;20399;-72
2022/10/19 07:46:22;;;;;;;8.38;5.00;;;;;;;12.33;70.62;102925.63;4891523;29;20046;-72
2022/10/19 07:48:48;;;;;;;8.65;4.82;;;;;;;12.46;70.22;102914.81;4889573;29;20100;-72
2022/10/19 07:51:16;;;;;;;11.45;5.40;;;;;;;12.40;70.91;102916.28;4864597;29;20609;-72
2022/10/19 07:53:42;;;;;;;11.43;4.75;;;;;;;12.52;70.88;102916.75;4866907;29;20047;-74
2022/10/19 07:56:12;;;;;;;9.77;4.72;;;;;;;12.59;70.28;102913.53;4880006;29;20041;-73
2022/10/19 07:58:39;;;;;;;8.73;4.90;;;;;;;12.65;70.82;102919.00;4888188;29;20040;-72
2022/10/19 08:01:11;;;;;;;9.07;4.30;;;;;;;12.67;70.55;102916.47;4883611;29;20039;-72
2022/10/19 08:03:36;;;;;;;7.82;4.30;;;;;;;12.65;69.72;102915.50;4891527;29;20063;-72
2022/10/19 08:06:07;;;;;;;9.48;4.40;;;;;;;13.05;69.73;102910.00;4884325;29;20109;-73
2022/10/19 08:08:32;;;;;;;8.65;4.00;;;;;;;13.20;69.35;102907.94;4884011;29;20074;-72
2022/10/19 08:11:06;;;;;;;11.10;4.38;;;;;;;12.91;70.41;102913.00;4887452;29;20111;-73
2022/10/19 08:13:31;;;;;;;8.10;4.00;;;;;;;13.08;69.96;102902.25;4860192;29;20440;-73
2022/10/19 08:15:57;;;;;;;6.18;3.72;;;;;;;12.92;70.75;102891.25;4893218;29;20802;-73
2022/10/19 08:18:22;;;;;;;8.65;3.90;;;;;;;12.91;70.93;102889.44;4908751;29;20036;-72
2022/10/19 08:20:48;;;;;;;9.75;4.38;;;;;;;12.95;70.38;102880.84;4904032;28;20077;-72
2022/10/19 08:23:14;;;;;;;7.57;3.60;;;;;;;13.11;70.25;102870.94;4902636;29;20411;-73
2022/10/19 08:25:39;;;;;;;7.47;3.58;;;;;;;13.34;68.71;102876.16;4901760;29;20978;-73
2022/10/19 08:28:04;;;;;;;11.60;3.55;;;;;;;13.61;69.45;102870.03;4910306;29;20043;-73
2022/10/19 08:30:30;;;;;;;5.95;3.17;;;;;;;13.82;68.62;102882.13;4909039;29;20030;-73
2022/10/19 08:32:55;;;;;;;7.60;3.55;;;;;;;13.66;68.81;102869.34;4902812;28;20405;-73
2022/10/19 08:35:21;;;;;;;8.63;3.00;;;;;;;13.64;68.26;102862.28;4910434;29;20074;-73
2022/10/19 08:37:47;;;;;;;8.50;2.92;;;;;;;13.93;67.88;102863.19;4890052;29;20086;-73
2022/10/19 08:40:32;;;;;;;7.13;2.90;;;;;;;13.58;68.03;102852.50;4907848;29;20111;-74
2022/10/19 08:42:58;;;;;;;5.82;2.70;;;;;;;14.09;67.01;102855.84;4902742;28;20403;-74
2022/10/19 08:45:45;;;;;;;5.78;2.90;;;;;;;14.13;67.55;102865.59;4908374;29;20305;-73
2022/10/19 08:48:24;;;;;;;6.65;2.72;;;;;;;14.17;66.43;102858.72;4904042;29;20404;-72
2022/10/19 08:50:50;;;;;;;7.57;2.80;;;;;;;14.27;67.33;102852.91;4900439;29;20328;-73
2022/10/19 08:53:19;;;;;;;4.28;2.50;;;;;;;14.28;66.66;102852.03;4903645;29;20417;-72
2022/10/19 08:56:00;;;;;;;5.63;2.50;;;;;;;14.62;66.35;102856.59;4902942;28;20060;-74
2022/10/19 08:58:40;;;;;;;7.32;2.67;;;;;;;14.63;66.32;102871.50;4908424;29;20051;-73
2022/10/19 09:01:27;;;;;;;7.22;2.55;;;;;;;14.60;66.43;102867.03;4904796;28;20043;-73
2022/10/19 09:04:03;;;;;;;6.63;2.47;;;;;;;14.63;64.78;102865.34;4905520;29;20138;-74
2022/10/19 09:06:32;;;;;;;8.23;2.60;;;;;;;14.54;66.39;102866.84;4907090;29;20047;-73
2022/10/19 09:08:58;;;;;;;6.82;2.70;;;;;;;14.67;65.97;102859.31;4903019;28;20051;-73
2022/10/19 09:11:27;;;;;;;7.85;2.65;;;;;;;14.87;65.36;102868.66;4907377;29;20036;-73
2022/10/19 09:14:12;;;;;;;5.25;2.40;;;;;;;14.70;65.38;102857.66;4904897;28;20051;-74
2022/10/19 09:16:37;;;;;;;6.93;2.40;;;;;;;14.66;64.84;102862.78;4906335;29;20318;-74
2022/10/19 09:19:16;;;;;;;6.78;2.53;;;;;;;14.96;65.69;102861.91;4900217;28;20746;-72
2022/10/19 09:21:54;;;;;;;6.50;2.50;;;;;;;14.85;66.31;102863.34;4903387;29;20102;-73
2022/10/19 09:24:42;;;;;;;4.63;2.35;;;;;;;15.33;64.42;102862.88;4909222;29;22096;-73
2022/10/19 09:27:21;;;;;;;5.68;2.20;;;;;;;15.33;64.37;102865.50;4898184;28;20154;-73
2022/10/19 09:29:53;;;;;;;6.60;2.20;;;;;;;15.16;64.27;102867.69;4905339;29;20066;-72
2022/10/19 09:32:29;;;;;;;9.73;2.55;;;;;;;15.26;63.76;102860.91;4903844;29;20107;-73
2022/10/19 09:35:18;;;;;;;9.98;2.20;;;;;;;15.67;64.22;102862.91;4911171;28;20343;-72
2022/10/19 09:37:49;;;;;;;6.38;2.28;;;;;;;15.54;64.21;102857.28;4900881;29;20071;-73
2022/10/19 09:40:23;;;;;;;6.13;2.00;;;;;;;15.47;64.64;102855.34;4911408;29;20045;-73
2022/10/19 09:43:02;;;;;;;6.25;2.10;;;;;;;15.74;63.75;102849.00;4901876;29;20857;-73
2022/10/19 09:45:48;;;;;;;6.22;2.30;;;;;;;15.33;64.23;102842.72;4910974;29;20601;-72
2022/10/19 09:48:40;;;;;;;6.05;2.30;;;;;;;15.84;63.43;102834.34;4899820;29;20495;-72
2022/10/19 09:51:13;;;;;;;7.97;2.30;;;;;;;15.96;62.50;102825.84;4897819;29;20047;-75
2022/10/19 09:53:46;;;;;;;6.13;1.90;;;;;;;15.39;64.09;102820.97;4890167;29;20107;-73
2022/10/19 09:56:23;;;;;;;7.60;2.20;;;;;;;15.68;62.00;102813.78;4906404;28;20646;-73
2022/10/19 09:58:51;;;;;;;7.18;2.00;;;;;;;15.79;61.99;102810.59;4892086;29;20040;-73
2022/10/19 10:01:36;;;;;;;8.43;1.90;;;;;;;15.95;61.10;102801.28;4903226;28;20531;-74
2022/10/19 10:04:29;;;;;;;9.50;1.90;;;;;;;16.06;61.53;102805.03;4905052;29;20042;-75
2022/10/19 10:06:56;;;;;;;5.82;1.38;;;;;;;16.00;60.59;102786.47;4908528;29;20039;-73
2022/10/19 10:09:27;;;;;;;5.65;1.50;;;;;;;15.96;60.09;102783.75;4903132;28;20577;-73
2022/10/19 10:11:56;;;;;;;4.28;1.52;;;;;;;15.99;61.06;102778.53;4906643;29;20060;-72
2022/10/19 10:14:24;;;;;;;4.55;1.58;;;;;;;15.68;60.93;102775.25;4901794;29;20052;-73
2022/10/19 10:16:56;;;;;;;5.85;1.80;;;;;;;15.93;60.83;102770.53;4902745;29;20032;-73
2022/10/19 10:19:27;;;;;;;5.13;1.30;;;;;;;16.14;60.35;102771.00;4906419;29;20054;-72
2022/10/19 10:21:54;;;;;;;7.28;1.63;;;;;;;15.99;59.94;102771.53;4911777;29;20521;-72
2022/10/19 10:24:23;;;;;;;6.18;1.88;;;;;;;15.78;59.64;102772.00;4904988;29;20523;-73
2022/10/19 10:26:57;;;;;;;6.88;1.90;;;;;;;15.77;59.56;102769.31;4905600;28;20542;-74
2022/10/19 10:29:24;;;;;;;;;;;;;;;16.08;59.16;102752.44;4902331;29;21166;-73
2022/10/19 10:31:54;;;;;;;5.65;1.55;;;;;;;16.00;59.69;102760.19;4901377;28;19930;-73
2022/10/19 10:34:40;;;;;;;4.05;1.33;;;;;;;16.23;58.82;102756.25;4910562;29;20333;-73
2022/10/19 10:37:15;;;;;;;5.82;1.40;;;;;;;16.16;58.01;102745.59;4900654;29;20069;-73
2022/10/19 10:39:42;;;;;;;7.63;1.73;;;;;;;15.68;58.92;102748.06;4906744;29;20032;-72
2022/10/19 10:42:13;;;;;;;6.25;2.00;;;;;;;15.57;59.57;102745.19;4893770;29;20514;-72
2022/10/19 10:44:46;;;;;;;5.47;1.40;;;;;;;16.06;58.93;102743.63;4905410;28;20050;-73
2022/10/19 10:47:15;;;;;;;5.38;1.60;;;;;;;15.93;58.85;102734.59;4898840;29;20467;-74
2022/10/19 10:49:42;;;;;;;5.05;1.60;;;;;;;15.95;58.62;102732.00;4901639;29;20048;-72
2022/10/19 10:52:11;;;;;;;5.97;1.60;;;;;;;16.27;57.85;102719.50;4898810;29;20106;-73
2022/10/19 10:54:37;;;;;;;6.88;1.80;;;;;;;16.40;57.71;102730.28;4905979;29;20443;-71
2022/10/19 10:57:14;;;;;;;7.18;1.92;;;;;;;16.39;57.56;102725.00;4900737;29;20048;-73
2022/10/19 11:00:17;;;;;;;8.25;2.53;;;;;;;16.09;58.05;102718.28;4911406;29;20118;-73
2022/10/19 11:02:53;;;;;;;6.95;2.10;;;;;;;16.07;57.94;102708.56;4846442;29;20617;-72
2022/10/19 11:05:30;;;;;;;6.28;2.13;;;;;;;16.09;57.81;102715.66;4899155;29;20046;-73
2022/10/19 11:08:04;;;;;;;6.63;2.22;;;;;;;16.34;57.68;102711.75;4906936;29;20146;-73
2022/10/19 11:10:44;;;;;;;13.43;2.60;;;;;;;16.09;58.16;102715.66;4906892;29;20036;-73
2022/10/19 11:13:20;;;;;;;5.80;2.38;;;;;;;16.20;58.45;102724.63;4913313;28;20120;-73
2022/10/19 11:16:01;;;;;;;7.80;2.50;;;;;;;16.16;57.83;102719.28;4909436;29;20385;-72
2022/10/19 11:18:26;;;;;;;5.35;2.30;;;;;;;16.44;57.88;102705.78;4908251;29;20460;-73
2022/10/19 11:21:09;;;;;;;8.02;2.63;;;;;;;16.77;57.02;102702.03;4903045;28;20054;-73
2022/10/19 11:24:07;;;;;;;6.18;2.75;;;;;;;16.47;57.54;102694.41;4906333;29;20035;-73
2022/10/19 11:27:06;;;;;;;8.85;2.78;;;;;;;16.28;57.78;102689.69;4918087;28;20526;-73
2022/10/19 11:30:09;;;;;;;5.97;2.60;;;;;;;16.33;57.98;102680.13;4905557;29;20063;-73